sensor_id;sensor_type;location;lat;lon;timestamp;pressure;altitude;pressure_sealevel;temperature;humidity
29461;BME280;16428;47.836;35.106;2023-02-21T00:02:27;99937.31;;;2.20;100.00
29461;BME280;16428;47.836;35.106;2023-02-21T00:05:13;99921.00;;;2.15;100.00
29461;BME280;16428;47.836;35.106;2023-02-21T00:07:59;99915.06;;;1.84;100.00
29461;BME280;16428;47.836;35.106;2023-02-21T00:10:45;99908.34;;;2.08;100.00
29461;BME280;16428;47.836;35.106;2023-02-21T00:13:35;99889.53;;;2.11;100.00
29461;BME280;16428;47.836;35.106;2023-02-21T00:16:23;99878.25;;;2.09;100.00
29461;BME280;16428;47.836;35.106;2023-02-21T00:19:09;99853.13;;;2.14;100.00
29461;BME280;16428;47.836;35.106;2023-02-21T00:21:56;99845.78;;;1.98;100.00
29461;BME280;16428;47.836;35.106;2023-02-21T00:24:43;99844.25;;;1.95;100.00
29461;BME280;16428;47.836;35.106;2023-02-21T00:27:29;99826.97;;;1.91;100.00
29461;BME280;16428;47.836;35.106;2023-02-21T00:30:15;99814.25;;;2.04;100.00
29461;BME280;16428;47.836;35.106;2023-02-21T00:33:02;99802.41;;;1.99;100.00
29461;BME280;16428;47.836;35.106;2023-02-21T00:35:49;99819.63;;;1.75;100.00
29461;BME280;16428;47.836;35.106;2023-02-21T00:38:36;99800.06;;;1.96;100.00
29461;BME280;16428;47.836;35.106;2023-02-21T00:41:22;99779.88;;;1.95;100.00
29461;BME280;16428;47.836;35.106;2023-02-21T00:44:09;99776.66;;;1.91;100.00
29461;BME280;16428;47.836;35.106;2023-02-21T00:46:55;99748.41;;;1.82;100.00
29461;BME280;16428;47.836;35.106;2023-02-21T00:49:41;99748.44;;;1.72;100.00
29461;BME280;16428;47.836;35.106;2023-02-21T00:52:28;99737.81;;;1.82;100.00
29461;BME280;16428;47.836;35.106;2023-02-21T00:55:14;99740.31;;;1.84;100.00
29461;BME280;16428;47.836;35.106;2023-02-21T00:58:00;99714.84;;;1.73;100.00
29461;BME280;16428;47.836;35.106;2023-02-21T01:00:46;99707.88;;;1.72;100.00
29461;BME280;16428;47.836;35.106;2023-02-21T01:03:32;99727.81;;;1.76;100.00
29461;BME280;16428;47.836;35.106;2023-02-21T01:06:18;99696.28;;;1.83;100.00
29461;BME280;16428;47.836;35.106;2023-02-21T01:09:04;99690.47;;;1.69;100.00
29461;BME280;16428;47.836;35.106;2023-02-21T01:11:50;99687.00;;;1.69;100.00
29461;BME280;16428;47.836;35.106;2023-02-21T01:14:36;99692.13;;;1.70;100.00
29461;BME280;16428;47.836;35.106;2023-02-21T01:17:22;99671.78;;;1.71;100.00
29461;BME280;16428;47.836;35.106;2023-02-21T01:20:09;99658.19;;;1.66;100.00
29461;BME280;16428;47.836;35.106;2023-02-21T01:22:55;99654.22;;;1.80;100.00
29461;BME280;16428;47.836;35.106;2023-02-21T01:25:42;99661.06;;;1.72;100.00
29461;BME280;16428;47.836;35.106;2023-02-21T01:28:28;99652.28;;;1.72;100.00
29461;BME280;16428;47.836;35.106;2023-02-21T01:31:20;99640.44;;;1.76;100.00
29461;BME280;16428;47.836;35.106;2023-02-21T01:34:07;99645.31;;;1.71;100.00
29461;BME280;16428;47.836;35.106;2023-02-21T01:36:54;99642.16;;;1.67;100.00
29461;BME280;16428;47.836;35.106;2023-02-21T01:39:40;99637.59;;;1.60;100.00
29461;BME280;16428;47.836;35.106;2023-02-21T01:42:26;99613.06;;;1.58;100.00
29461;BME280;16428;47.836;35.106;2023-02-21T01:45:39;99616.97;;;1.63;100.00
29461;BME280;16428;47.836;35.106;2023-02-21T01:48:28;99639.25;;;1.61;100.00
29461;BME280;16428;47.836;35.106;2023-02-21T01:51:17;99608.03;;;1.64;100.00
29461;BME280;16428;47.836;35.106;2023-02-21T01:54:05;99604.22;;;1.76;100.00
29461;BME280;16428;47.836;35.106;2023-02-21T01:56:54;99577.03;;;1.74;100.00
29461;BME280;16428;47.836;35.106;2023-02-21T01:59:41;99590.69;;;1.80;100.00
29461;BME280;16428;47.836;35.106;2023-02-21T02:02:37;99575.00;;;1.86;100.00
29461;BME280;16428;47.836;35.106;2023-02-21T02:05:26;99573.66;;;1.82;100.00
29461;BME280;16428;47.836;35.106;2023-02-21T02:08:17;99567.97;;;1.77;100.00
29461;BME280;16428;47.836;35.106;2023-02-21T02:11:25;99578.84;;;1.74;100.00
29461;BME280;16428;47.836;35.106;2023-02-21T02:14:42;99583.44;;;1.82;100.00
29461;BME280;16428;47.836;35.106;2023-02-21T02:17:33;99562.47;;;1.88;100.00
29461;BME280;16428;47.836;35.106;2023-02-21T02:36:29;99525.84;;;2.37;100.00
29461;BME280;16428;47.836;35.106;2023-02-21T02:39:14;99522.81;;;2.32;100.00
29461;BME280;16428;47.836;35.106;2023-02-21T02:41:52;99513.25;;;2.39;100.00
29461;BME280;16428;47.836;35.106;2023-02-21T02:44:30;99495.28;;;2.51;100.00
29461;BME280;16428;47.836;35.106;2023-02-21T02:47:02;99490.00;;;2.51;100.00
29461;BME280;16428;47.836;35.106;2023-02-21T02:49:32;99499.16;;;2.56;100.00
29461;BME280;16428;47.836;35.106;2023-02-21T02:52:07;99520.06;;;2.59;100.00
29461;BME280;16428;47.836;35.106;2023-02-21T02:54:35;99484.50;;;2.70;100.00
29461;BME280;16428;47.836;35.106;2023-02-21T02:57:05;99491.47;;;2.71;100.00
29461;BME280;16428;47.836;35.106;2023-02-21T02:59:40;99507.38;;;2.71;100.00
29461;BME280;16428;47.836;35.106;2023-02-21T03:08:13;99455.25;;;2.88;100.00
29461;BME280;16428;47.836;35.106;2023-02-21T03:10:48;99437.00;;;2.85;100.00
29461;BME280;16428;47.836;35.106;2023-02-21T03:16:35;99439.22;;;2.97;100.00
29461;BME280;16428;47.836;35.106;2023-02-21T03:19:12;99431.41;;;2.96;100.00
29461;BME280;16428;47.836;35.106;2023-02-21T03:21:46;99445.22;;;3.07;100.00
29461;BME280;16428;47.836;35.106;2023-02-21T03:24:18;99421.31;;;2.99;100.00
29461;BME280;16428;47.836;35.106;2023-02-21T03:26:51;99426.16;;;3.04;100.00
29461;BME280;16428;47.836;35.106;2023-02-21T03:29:20;99416.03;;;3.07;100.00
29461;BME280;16428;47.836;35.106;2023-02-21T03:31:55;99413.94;;;3.19;100.00
29461;BME280;16428;47.836;35.106;2023-02-21T03:34:26;99413.59;;;3.22;100.00
29461;BME280;16428;47.836;35.106;2023-02-21T03:36:54;99406.66;;;3.29;100.00
29461;BME280;16428;47.836;35.106;2023-02-21T03:39:22;99403.00;;;3.30;100.00
29461;BME280;16428;47.836;35.106;2023-02-21T03:41:49;99414.63;;;3.29;100.00
29461;BME280;16428;47.836;35.106;2023-02-21T03:44:17;99400.72;;;3.35;100.00
29461;BME280;16428;47.836;35.106;2023-02-21T03:46:44;99387.09;;;3.38;100.00
29461;BME280;16428;47.836;35.106;2023-02-21T03:49:12;99397.06;;;3.52;100.00
29461;BME280;16428;47.836;35.106;2023-02-21T03:51:39;99406.19;;;3.42;100.00
29461;BME280;16428;47.836;35.106;2023-02-21T03:54:06;99394.09;;;3.47;100.00
29461;BME280;16428;47.836;35.106;2023-02-21T03:56:34;99386.44;;;3.52;100.00
29461;BME280;16428;47.836;35.106;2023-02-21T03:59:08;99400.22;;;3.56;100.00
29461;BME280;16428;47.836;35.106;2023-02-21T04:01:36;99388.09;;;3.53;100.00
29461;BME280;16428;47.836;35.106;2023-02-21T04:04:06;99383.16;;;3.50;100.00
29461;BME280;16428;47.836;35.106;2023-02-21T04:06:35;99391.75;;;3.52;100.00
29461;BME280;16428;47.836;35.106;2023-02-21T04:09:02;99394.59;;;3.51;100.00
29461;BME280;16428;47.836;35.106;2023-02-21T04:11:30;99390.09;;;3.51;100.00
29461;BME280;16428;47.836;35.106;2023-02-21T04:13:58;99386.94;;;3.56;100.00
29461;BME280;16428;47.836;35.106;2023-02-21T04:16:26;99372.53;;;3.50;100.00
29461;BME280;16428;47.836;35.106;2023-02-21T04:18:53;99382.47;;;3.57;100.00
29461;BME280;16428;47.836;35.106;2023-02-21T04:21:24;99375.00;;;3.68;100.00
29461;BME280;16428;47.836;35.106;2023-02-21T04:23:51;99383.47;;;3.64;100.00
29461;BME280;16428;47.836;35.106;2023-02-21T04:26:19;99370.53;;;3.69;100.00
29461;BME280;16428;47.836;35.106;2023-02-21T04:28:46;99372.03;;;3.79;100.00
29461;BME280;16428;47.836;35.106;2023-02-21T04:31:16;99360.72;;;3.85;100.00
29461;BME280;16428;47.836;35.106;2023-02-21T04:33:44;99348.94;;;3.88;100.00
29461;BME280;16428;47.836;35.106;2023-02-21T04:36:11;99361.25;;;3.97;100.00
29461;BME280;16428;47.836;35.106;2023-02-21T04:38:39;99356.56;;;3.99;100.00
29461;BME280;16428;47.836;35.106;2023-02-21T04:41:06;99353.94;;;3.91;100.00
29461;BME280;16428;47.836;35.106;2023-02-21T04:43:34;99360.56;;;4.03;100.00
29461;BME280;16428;47.836;35.106;2023-02-21T04:46:02;99351.91;;;4.09;100.00
29461;BME280;16428;47.836;35.106;2023-02-21T04:48:31;99344.28;;;4.06;100.00
29461;BME280;16428;47.836;35.106;2023-02-21T04:50:58;99334.00;;;4.11;100.00
29461;BME280;16428;47.836;35.106;2023-02-21T04:53:40;99333.00;;;4.04;100.00
29461;BME280;16428;47.836;35.106;2023-02-21T04:56:09;99342.97;;;4.10;100.00
29461;BME280;16428;47.836;35.106;2023-02-21T04:58:39;99348.75;;;4.14;100.00
29461;BME280;16428;47.836;35.106;2023-02-21T05:01:14;99356.91;;;4.12;100.00
29461;BME280;16428;47.836;35.106;2023-02-21T05:03:42;99350.94;;;4.10;100.00
29461;BME280;16428;47.836;35.106;2023-02-21T05:06:10;99343.91;;;4.17;100.00
29461;BME280;16428;47.836;35.106;2023-02-21T05:08:43;99339.94;;;4.13;100.00
29461;BME280;16428;47.836;35.106;2023-02-21T05:11:10;99336.94;;;4.24;100.00
29461;BME280;16428;47.836;35.106;2023-02-21T05:13:39;99323.94;;;4.30;100.00
29461;BME280;16428;47.836;35.106;2023-02-21T05:16:06;99342.09;;;4.26;100.00
29461;BME280;16428;47.836;35.106;2023-02-21T05:18:34;99337.59;;;4.18;100.00
29461;BME280;16428;47.836;35.106;2023-02-21T05:21:06;99339.09;;;4.13;100.00
29461;BME280;16428;47.836;35.106;2023-02-21T05:23:38;99332.97;;;4.20;100.00
29461;BME280;16428;47.836;35.106;2023-02-21T05:26:11;99345.75;;;4.25;100.00
29461;BME280;16428;47.836;35.106;2023-02-21T05:28:39;99347.56;;;4.16;100.00
29461;BME280;16428;47.836;35.106;2023-02-21T05:31:07;99338.28;;;4.20;100.00
29461;BME280;16428;47.836;35.106;2023-02-21T05:33:35;99327.81;;;4.19;100.00
29461;BME280;16428;47.836;35.106;2023-02-21T05:36:03;99344.59;;;4.19;100.00
29461;BME280;16428;47.836;35.106;2023-02-21T05:38:31;99333.97;;;4.19;100.00
29461;BME280;16428;47.836;35.106;2023-02-21T05:40:58;99328.63;;;4.19;100.00
29461;BME280;16428;47.836;35.106;2023-02-21T05:43:25;99336.59;;;4.28;100.00
29461;BME280;16428;47.836;35.106;2023-02-21T05:45:55;99344.22;;;4.39;100.00
29461;BME280;16428;47.836;35.106;2023-02-21T05:48:23;99343.19;;;4.48;100.00
29461;BME280;16428;47.836;35.106;2023-02-21T05:50:50;99347.81;;;4.46;100.00
29461;BME280;16428;47.836;35.106;2023-02-21T05:53:18;99344.16;;;4.55;100.00
29461;BME280;16428;47.836;35.106;2023-02-21T05:55:45;99340.19;;;4.51;100.00
29461;BME280;16428;47.836;35.106;2023-02-21T05:58:13;99320.84;;;4.65;100.00
29461;BME280;16428;47.836;35.106;2023-02-21T06:00:40;99338.47;;;4.66;100.00
29461;BME280;16428;47.836;35.106;2023-02-21T06:03:07;99337.78;;;4.72;100.00
29461;BME280;16428;47.836;35.106;2023-02-21T06:05:37;99337.06;;;4.78;100.00
29461;BME280;16428;47.836;35.106;2023-02-21T06:08:05;99340.53;;;4.87;100.00
29461;BME280;16428;47.836;35.106;2023-02-21T06:10:36;99344.31;;;4.92;100.00
29461;BME280;16428;47.836;35.106;2023-02-21T06:13:04;99331.44;;;5.04;100.00
29461;BME280;16428;47.836;35.106;2023-02-21T06:15:31;99330.44;;;5.05;100.00
29461;BME280;16428;47.836;35.106;2023-02-21T06:18:00;99326.34;;;4.94;100.00
29461;BME280;16428;47.836;35.106;2023-02-21T06:20:35;99326.00;;;4.98;100.00
29461;BME280;16428;47.836;35.106;2023-02-21T06:23:02;99326.94;;;5.05;100.00
29461;BME280;16428;47.836;35.106;2023-02-21T06:25:30;99330.50;;;4.97;100.00
29461;BME280;16428;47.836;35.106;2023-02-21T06:27:57;99323.66;;;5.03;100.00
29461;BME280;16428;47.836;35.106;2023-02-21T06:30:26;99322.09;;;5.08;100.00
29461;BME280;16428;47.836;35.106;2023-02-21T06:32:53;99343.06;;;5.11;100.00
29461;BME280;16428;47.836;35.106;2023-02-21T06:35:21;99326.25;;;5.11;100.00
29461;BME280;16428;47.836;35.106;2023-02-21T06:37:49;99325.91;;;5.14;100.00
29461;BME280;16428;47.836;35.106;2023-02-21T06:40:16;99311.88;;;5.20;100.00
29461;BME280;16428;47.836;35.106;2023-02-21T06:42:44;99332.13;;;5.29;100.00
29461;BME280;16428;47.836;35.106;2023-02-21T06:45:12;99328.88;;;5.19;100.00
29461;BME280;16428;47.836;35.106;2023-02-21T06:47:40;99317.66;;;5.32;100.00
29461;BME280;16428;47.836;35.106;2023-02-21T06:50:07;99305.34;;;5.30;100.00
29461;BME280;16428;47.836;35.106;2023-02-21T06:52:36;99311.25;;;5.18;100.00
29461;BME280;16428;47.836;35.106;2023-02-21T06:55:04;99303.19;;;5.26;100.00
29461;BME280;16428;47.836;35.106;2023-02-21T06:57:32;99294.88;;;5.29;100.00
29461;BME280;16428;47.836;35.106;2023-02-21T06:59:59;99301.56;;;5.48;100.00
29461;BME280;16428;47.836;35.106;2023-02-21T07:02:27;99316.03;;;5.45;100.00
29461;BME280;16428;47.836;35.106;2023-02-21T07:04:54;99316.56;;;5.63;100.00
29461;BME280;16428;47.836;35.106;2023-02-21T07:07:22;99319.63;;;5.75;100.00
29461;BME280;16428;47.836;35.106;2023-02-21T07:09:50;99319.84;;;5.65;100.00
29461;BME280;16428;47.836;35.106;2023-02-21T07:12:17;99329.09;;;5.78;100.00
29461;BME280;16428;47.836;35.106;2023-02-21T07:14:45;99311.47;;;5.77;100.00
29461;BME280;16428;47.836;35.106;2023-02-21T07:17:19;99326.34;;;5.86;100.00
29461;BME280;16428;47.836;35.106;2023-02-21T07:19:46;99332.03;;;5.83;100.00
29461;BME280;16428;47.836;35.106;2023-02-21T07:22:13;99324.00;;;5.91;100.00
29461;BME280;16428;47.836;35.106;2023-02-21T07:24:42;99321.25;;;5.99;100.00
29461;BME280;16428;47.836;35.106;2023-02-21T07:27:09;99324.94;;;5.98;100.00
29461;BME280;16428;47.836;35.106;2023-02-21T07:29:37;99326.41;;;6.00;100.00
29461;BME280;16428;47.836;35.106;2023-02-21T07:32:04;99347.56;;;6.17;100.00
29461;BME280;16428;47.836;35.106;2023-02-21T07:34:32;99345.41;;;5.97;100.00
29461;BME280;16428;47.836;35.106;2023-02-21T07:36:59;99342.50;;;5.92;100.00
29461;BME280;16428;47.836;35.106;2023-02-21T07:39:28;99343.06;;;6.03;100.00
29461;BME280;16428;47.836;35.106;2023-02-21T07:41:56;99345.00;;;6.09;100.00
29461;BME280;16428;47.836;35.106;2023-02-21T07:44:23;99339.56;;;6.02;100.00
29461;BME280;16428;47.836;35.106;2023-02-21T07:46:51;99341.75;;;5.98;100.00
29461;BME280;16428;47.836;35.106;2023-02-21T07:49:18;99334.41;;;6.00;100.00
29461;BME280;16428;47.836;35.106;2023-02-21T07:51:46;99332.91;;;5.98;100.00
29461;BME280;16428;47.836;35.106;2023-02-21T07:54:14;99327.56;;;6.35;100.00
29461;BME280;16428;47.836;35.106;2023-02-21T07:56:46;99336.19;;;6.67;100.00
29461;BME280;16428;47.836;35.106;2023-02-21T07:59:14;99342.16;;;6.84;100.00
29461;BME280;16428;47.836;35.106;2023-02-21T08:01:42;99341.41;;;7.26;100.00
29461;BME280;16428;47.836;35.106;2023-02-21T08:04:10;99346.16;;;7.45;100.00
29461;BME280;16428;47.836;35.106;2023-02-21T08:06:41;99351.53;;;7.52;100.00
29461;BME280;16428;47.836;35.106;2023-02-21T08:09:09;99345.88;;;7.83;100.00
29461;BME280;16428;47.836;35.106;2023-02-21T08:11:36;99347.28;;;7.79;100.00
29461;BME280;16428;47.836;35.106;2023-02-21T08:14:07;99347.47;;;7.77;100.00
29461;BME280;16428;47.836;35.106;2023-02-21T08:16:34;99354.00;;;7.96;100.00
29461;BME280;16428;47.836;35.106;2023-02-21T08:19:03;99365.44;;;8.11;100.00
29461;BME280;16428;47.836;35.106;2023-02-21T08:21:32;99353.03;;;8.31;100.00
29461;BME280;16428;47.836;35.106;2023-02-21T08:23:59;99357.03;;;8.70;100.00
29461;BME280;16428;47.836;35.106;2023-02-21T08:26:28;99353.78;;;8.88;100.00
29461;BME280;16428;47.836;35.106;2023-02-21T08:28:56;99351.88;;;9.16;100.00
29461;BME280;16428;47.836;35.106;2023-02-21T08:31:23;99351.41;;;8.99;99.56
29461;BME280;16428;47.836;35.106;2023-02-21T08:33:53;99355.97;;;9.18;98.12
29461;BME280;16428;47.836;35.106;2023-02-21T08:36:20;99338.53;;;9.42;98.06
29461;BME280;16428;47.836;35.106;2023-02-21T08:38:50;99347.84;;;9.66;93.97
29461;BME280;16428;47.836;35.106;2023-02-21T08:41:20;99337.13;;;9.66;91.73
29461;BME280;16428;47.836;35.106;2023-02-21T08:43:47;99330.75;;;9.94;91.62
29461;BME280;16428;47.836;35.106;2023-02-21T08:46:15;99331.34;;;9.69;90.07
29461;BME280;16428;47.836;35.106;2023-02-21T08:48:42;99345.38;;;9.58;88.27
29461;BME280;16428;47.836;35.106;2023-02-21T08:51:10;99332.59;;;9.67;87.93
29461;BME280;16428;47.836;35.106;2023-02-21T08:53:37;99355.25;;;9.51;86.35
29461;BME280;16428;47.836;35.106;2023-02-21T08:56:05;99346.06;;;10.19;85.63
29461;BME280;16428;47.836;35.106;2023-02-21T08:58:34;99343.94;;;10.08;82.85
29461;BME280;16428;47.836;35.106;2023-02-21T09:01:04;99336.91;;;10.40;82.28
29461;BME280;16428;47.836;35.106;2023-02-21T09:03:33;99338.81;;;9.87;85.06
29461;BME280;16428;47.836;35.106;2023-02-21T09:06:00;99343.34;;;10.13;84.93
29461;BME280;16428;47.836;35.106;2023-02-21T09:08:33;99338.59;;;10.02;87.41
29461;BME280;16428;47.836;35.106;2023-02-21T09:11:02;99329.31;;;9.98;84.23
29461;BME280;16428;47.836;35.106;2023-02-21T09:13:30;99331.38;;;9.82;82.17
29461;BME280;16428;47.836;35.106;2023-02-21T09:16:00;99331.34;;;9.69;83.58
29461;BME280;16428;47.836;35.106;2023-02-21T09:18:30;99326.41;;;9.60;85.08
29461;BME280;16428;47.836;35.106;2023-02-21T09:20:58;99352.00;;;9.75;85.20
29461;BME280;16428;47.836;35.106;2023-02-21T09:23:27;99349.53;;;10.07;82.46
29461;BME280;16428;47.836;35.106;2023-02-21T09:25:55;99333.44;;;10.27;83.20
29461;BME280;16428;47.836;35.106;2023-02-21T09:28:23;99325.00;;;10.23;82.16
29461;BME280;16428;47.836;35.106;2023-02-21T09:30:51;99322.03;;;10.57;83.17
29461;BME280;16428;47.836;35.106;2023-02-21T09:33:20;99330.22;;;10.82;82.25
29461;BME280;16428;47.836;35.106;2023-02-21T09:35:48;99323.06;;;10.63;81.87
29461;BME280;16428;47.836;35.106;2023-02-21T09:38:17;99330.84;;;10.78;81.87
29461;BME280;16428;47.836;35.106;2023-02-21T09:40:48;99320.56;;;10.62;82.86
29461;BME280;16428;47.836;35.106;2023-02-21T09:43:39;99306.16;;;10.49;83.47
29461;BME280;16428;47.836;35.106;2023-02-21T09:46:18;99317.75;;;9.71;84.77
29461;BME280;16428;47.836;35.106;2023-02-21T09:48:48;99326.00;;;9.82;85.82
29461;BME280;16428;47.836;35.106;2023-02-21T09:51:16;99321.47;;;9.76;85.41
29461;BME280;16428;47.836;35.106;2023-02-21T09:53:46;99322.09;;;9.98;84.48
29461;BME280;16428;47.836;35.106;2023-02-21T09:56:26;99312.78;;;10.34;82.88
29461;BME280;16428;47.836;35.106;2023-02-21T09:58:56;99320.22;;;10.32;83.31
29461;BME280;16428;47.836;35.106;2023-02-21T10:07:10;99321.88;;;10.33;81.16
29461;BME280;16428;47.836;35.106;2023-02-21T10:09:50;99329.97;;;10.19;80.27
29461;BME280;16428;47.836;35.106;2023-02-21T10:12:30;99316.13;;;9.90;79.57
29461;BME280;16428;47.836;35.106;2023-02-21T10:15:28;99330.75;;;10.07;79.76
29461;BME280;16428;47.836;35.106;2023-02-21T10:20:58;99325.81;;;10.37;80.06
29461;BME280;16428;47.836;35.106;2023-02-21T10:23:41;99314.13;;;10.76;79.93
29461;BME280;16428;47.836;35.106;2023-02-21T10:26:13;99311.78;;;10.86;77.24
29461;BME280;16428;47.836;35.106;2023-02-21T10:28:42;99295.31;;;11.20;77.39
29461;BME280;16428;47.836;35.106;2023-02-21T10:31:19;99295.78;;;10.66;76.35
29461;BME280;16428;47.836;35.106;2023-02-21T10:33:50;99289.19;;;10.55;76.71
29461;BME280;16428;47.836;35.106;2023-02-21T10:36:20;99299.97;;;10.42;77.81
29461;BME280;16428;47.836;35.106;2023-02-21T10:41:38;99295.06;;;10.06;82.12
29461;BME280;16428;47.836;35.106;2023-02-21T10:44:09;99287.19;;;10.31;82.96
29461;BME280;16428;47.836;35.106;2023-02-21T10:46:44;99281.00;;;10.11;84.35
29461;BME280;16428;47.836;35.106;2023-02-21T10:49:51;99286.38;;;10.11;83.49
29461;BME280;16428;47.836;35.106;2023-02-21T10:52:22;99283.91;;;9.96;84.48
29461;BME280;16428;47.836;35.106;2023-02-21T10:55:20;99276.94;;;9.75;85.36
29461;BME280;16428;47.836;35.106;2023-02-21T10:58:09;99288.69;;;9.74;86.55
29461;BME280;16428;47.836;35.106;2023-02-21T11:00:42;99297.03;;;9.12;88.26
29461;BME280;16428;47.836;35.106;2023-02-21T11:03:22;99307.53;;;7.97;100.00
29461;BME280;16428;47.836;35.106;2023-02-21T11:05:57;99304.28;;;7.31;100.00
29461;BME280;16428;47.836;35.106;2023-02-21T11:08:42;99297.09;;;7.31;100.00
29461;BME280;16428;47.836;35.106;2023-02-21T11:11:10;99291.75;;;7.31;100.00
29461;BME280;16428;47.836;35.106;2023-02-21T11:13:38;99302.47;;;6.95;100.00
29461;BME280;16428;47.836;35.106;2023-02-21T11:16:18;99300.94;;;6.86;100.00
29461;BME280;16428;47.836;35.106;2023-02-21T11:19:03;99285.31;;;7.04;100.00
29461;BME280;16428;47.836;35.106;2023-02-21T11:21:32;99299.28;;;7.06;100.00
29461;BME280;16428;47.836;35.106;2023-02-21T11:24:03;99300.06;;;7.00;100.00
29461;BME280;16428;47.836;35.106;2023-02-21T11:26:51;99287.59;;;7.07;100.00
29461;BME280;16428;47.836;35.106;2023-02-21T11:29:22;99281.31;;;7.15;100.00
29461;BME280;16428;47.836;35.106;2023-02-21T11:31:52;99273.00;;;7.46;100.00
29461;BME280;16428;47.836;35.106;2023-02-21T11:34:28;99266.09;;;7.58;100.00
29461;BME280;16428;47.836;35.106;2023-02-21T11:37:01;99265.09;;;7.38;100.00
29461;BME280;16428;47.836;35.106;2023-02-21T11:39:33;99264.84;;;7.54;100.00
29461;BME280;16428;47.836;35.106;2023-02-21T11:42:04;99267.97;;;7.86;100.00
29461;BME280;16428;47.836;35.106;2023-02-21T11:45:03;99270.66;;;8.20;100.00
29461;BME280;16428;47.836;35.106;2023-02-21T11:47:38;99279.00;;;8.04;100.00
29461;BME280;16428;47.836;35.106;2023-02-21T11:55:17;99270.09;;;8.66;100.00
29461;BME280;16428;47.836;35.106;2023-02-21T12:00:48;99270.28;;;9.38;100.00
29461;BME280;16428;47.836;35.106;2023-02-21T12:06:09;99277.72;;;9.82;98.92
29461;BME280;16428;47.836;35.106;2023-02-21T12:09:00;99286.16;;;10.32;96.42
29461;BME280;16428;47.836;35.106;2023-02-21T12:11:36;99293.72;;;10.55;94.41
29461;BME280;16428;47.836;35.106;2023-02-21T12:14:13;99285.97;;;10.01;89.23
29461;BME280;16428;47.836;35.106;2023-02-21T12:30:05;99291.88;;;11.07;85.83
29461;BME280;16428;47.836;35.106;2023-02-21T12:36:09;99285.28;;;11.66;83.64
29461;BME280;16428;47.836;35.106;2023-02-21T12:41:42;99281.03;;;11.26;83.59
29461;BME280;16428;47.836;35.106;2023-02-21T12:47:15;99297.38;;;11.88;80.68
29461;BME280;16428;47.836;35.106;2023-02-21T12:54:50;99293.56;;;11.64;76.17
29461;BME280;16428;47.836;35.106;2023-02-21T12:57:27;99304.41;;;11.89;76.99
29461;BME280;16428;47.836;35.106;2023-02-21T13:00:14;99307.34;;;12.49;74.23
29461;BME280;16428;47.836;35.106;2023-02-21T13:05:41;99308.22;;;12.43;72.05
29461;BME280;16428;47.836;35.106;2023-02-21T13:08:23;99321.16;;;12.34;69.34
29461;BME280;16428;47.836;35.106;2023-02-21T13:13:32;99308.06;;;11.63;68.07
29461;BME280;16428;47.836;35.106;2023-02-21T13:16:03;99314.84;;;11.41;70.32
29461;BME280;16428;47.836;35.106;2023-02-21T13:23:49;99308.47;;;10.97;72.86
29461;BME280;16428;47.836;35.106;2023-02-21T13:29:00;99307.34;;;10.60;73.47
29461;BME280;16428;47.836;35.106;2023-02-21T13:31:41;99323.84;;;10.70;74.64
29461;BME280;16428;47.836;35.106;2023-02-21T13:34:10;99322.44;;;10.54;74.19
29461;BME280;16428;47.836;35.106;2023-02-21T13:36:42;99326.19;;;10.47;73.41
29461;BME280;16428;47.836;35.106;2023-02-21T13:39:15;99309.94;;;10.22;74.58
29461;BME280;16428;47.836;35.106;2023-02-21T13:41:55;99311.56;;;10.03;73.97
29461;BME280;16428;47.836;35.106;2023-02-21T13:44:31;99344.16;;;9.61;82.22
29461;BME280;16428;47.836;35.106;2023-02-21T13:47:09;99346.09;;;9.12;92.08
29461;BME280;16428;47.836;35.106;2023-02-21T13:49:53;99350.28;;;8.87;97.42
29461;BME280;16428;47.836;35.106;2023-02-21T14:03:28;99341.22;;;7.91;100.00
29461;BME280;16428;47.836;35.106;2023-02-21T14:08:37;99349.59;;;7.60;100.00
29461;BME280;16428;47.836;35.106;2023-02-21T14:13:58;99343.81;;;7.21;100.00
29461;BME280;16428;47.836;35.106;2023-02-21T14:19:25;99331.47;;;7.20;100.00
29461;BME280;16428;47.836;35.106;2023-02-21T14:22:15;99326.34;;;7.39;100.00
29461;BME280;16428;47.836;35.106;2023-02-21T14:24:48;99326.53;;;7.38;100.00
29461;BME280;16428;47.836;35.106;2023-02-21T14:32:50;99320.31;;;7.52;100.00
29461;BME280;16428;47.836;35.106;2023-02-21T14:37:51;99324.97;;;7.44;100.00
29461;BME280;16428;47.836;35.106;2023-02-21T14:51:03;99304.75;;;7.20;100.00
29461;BME280;16428;47.836;35.106;2023-02-21T15:01:48;99312.28;;;7.10;100.00
29461;BME280;16428;47.836;35.106;2023-02-21T15:09:41;99329.53;;;6.92;100.00
29461;BME280;16428;47.836;35.106;2023-02-21T15:12:14;99335.47;;;7.09;100.00
29461;BME280;16428;47.836;35.106;2023-02-21T15:14:50;99352.69;;;7.06;100.00
29461;BME280;16428;47.836;35.106;2023-02-21T15:17:21;99337.59;;;7.14;100.00
29461;BME280;16428;47.836;35.106;2023-02-21T15:20:14;99353.47;;;7.00;100.00
29461;BME280;16428;47.836;35.106;2023-02-21T15:22:43;99350.09;;;7.13;100.00
29461;BME280;16428;47.836;35.106;2023-02-21T15:25:15;99371.97;;;7.02;100.00
29461;BME280;16428;47.836;35.106;2023-02-21T15:32:54;99393.94;;;6.89;100.00
29461;BME280;16428;47.836;35.106;2023-02-21T15:35:29;99399.22;;;6.83;100.00
29461;BME280;16428;47.836;35.106;2023-02-21T15:38:04;99401.25;;;6.81;100.00
29461;BME280;16428;47.836;35.106;2023-02-21T15:40:36;99405.09;;;6.78;100.00
29461;BME280;16428;47.836;35.106;2023-02-21T15:43:36;99402.97;;;6.88;100.00
29461;BME280;16428;47.836;35.106;2023-02-21T15:46:07;99417.25;;;6.95;100.00
29461;BME280;16428;47.836;35.106;2023-02-21T15:48:36;99421.66;;;6.59;100.00
29461;BME280;16428;47.836;35.106;2023-02-21T15:51:07;99429.03;;;6.72;100.00
29461;BME280;16428;47.836;35.106;2023-02-21T15:53:35;99424.72;;;6.85;100.00